IQT weather

Coronel FAP Francisco Secada Vignetta International Airport
Iquitos, Loreto Region, PerĂº

Public forecast

Using degrees Celsius for public forecast. Weather courtesy of forecast.io.

Current aviation weather report (METAR) for Coronel FAP Francisco Secada Vignetta International Airport

Retrieved 2020/02/21 09:00 UTC (35 minutes ago):

SPQT 210900Z 00000KT 9999 FEW005 BKN100 25/24 Q1008 NOSIG RMK PP000

Aviation forecast (TAF) for Coronel FAP Francisco Secada Vignetta International Airport

Retrieved 2020/02/21 06:33 UTC (3 hours ago):

TAF SPQT 210500Z 2106/2206 00000KT 9999 SCT010 BKN080 TX33/2120Z TN23/2111Z TEMPO 2108/2112 2000 PRFG BKN005 BKN080 BECMG 2114/2117 02005KT BKN015 BKN080 TEMPO 2119/2123 08012KT 3000 SHRA BKN015 FEW025TCU BKN070